createdAt,value
2023-11-12T00:00:16.301Z,6.12
2023-11-12T00:09:00.637Z,6.10
2023-11-12T00:17:29.925Z,6.14
2023-11-12T00:25:55.328Z,6.17
2023-11-12T00:34:23.230Z,6.20
2023-11-12T00:42:47.903Z,6.20
2023-11-12T00:51:14.831Z,6.19
2023-11-12T00:59:40.547Z,6.19
2023-11-12T01:08:04.242Z,6.21
2023-11-12T01:16:29.626Z,6.26
2023-11-12T01:24:53.984Z,6.27
2023-11-12T01:33:20.528Z,6.23
2023-11-12T01:41:44.976Z,6.17
2023-11-12T01:50:14.309Z,6.09
2023-11-12T01:58:44.448Z,6.00
2023-11-12T02:07:08.944Z,5.90
2023-11-12T02:15:34.419Z,5.83
2023-11-12T02:24:03.010Z,5.82
2023-11-12T02:32:36.042Z,5.83
2023-11-12T02:41:03.347Z,5.78
2023-11-12T02:50:06.952Z,5.70
2023-11-12T02:58:31.045Z,5.65
2023-11-12T03:06:58.977Z,5.62
2023-11-12T03:15:25.662Z,5.58
2023-11-12T03:23:51.751Z,5.50
2023-11-12T03:32:16.658Z,5.40
2023-11-12T03:40:40.847Z,5.34
2023-11-12T03:49:06.140Z,5.30
2023-11-12T03:57:33.753Z,5.30
2023-11-12T04:05:57.843Z,5.27
2023-11-12T04:14:23.739Z,5.22
2023-11-12T04:22:48.415Z,5.17
2023-11-12T04:31:17.503Z,5.12
2023-11-12T04:39:42.594Z,5.09
2023-11-12T04:48:07.700Z,5.07
2023-11-12T04:56:33.032Z,5.05
2023-11-12T05:04:59.387Z,5.03
2023-11-12T05:13:23.817Z,5.08
2023-11-12T05:21:49.072Z,5.07
2023-11-12T05:30:14.032Z,4.98
2023-11-12T05:38:40.053Z,4.91
2023-11-12T05:47:05.660Z,4.89
2023-11-12T05:55:35.245Z,4.83
2023-11-12T06:04:01.702Z,4.74
2023-11-12T06:12:26.515Z,4.69
2023-11-12T06:20:53.208Z,4.67
2023-11-12T06:29:16.967Z,4.64
2023-11-12T06:37:40.361Z,4.62
2023-11-12T06:46:08.783Z,4.63
2023-11-12T06:54:34.495Z,4.60
2023-11-12T07:02:58.495Z,4.60
2023-11-12T07:11:22.968Z,4.64
2023-11-12T07:19:46.920Z,4.69
2023-11-12T07:28:18.538Z,4.75
2023-11-12T07:36:44.685Z,4.79
2023-11-12T07:45:13.947Z,4.86
2023-11-12T07:53:40.194Z,4.94
2023-11-12T08:02:03.729Z,4.99
2023-11-12T08:10:28.081Z,5.09
2023-11-12T08:18:55.131Z,5.23
2023-11-12T08:27:19.647Z,5.40
2023-11-12T08:35:43.026Z,5.60
2023-11-12T08:44:08.385Z,5.83
2023-11-12T08:52:33.528Z,6.11
2023-11-12T09:00:59.104Z,6.36
2023-11-12T09:09:24.648Z,6.49
2023-11-12T09:17:48.856Z,6.41
2023-11-12T09:26:22.179Z,6.35
2023-11-12T09:34:47.187Z,6.32
2023-11-12T09:43:13.937Z,6.38
2023-11-12T09:51:45.047Z,6.44
2023-11-12T10:00:13.814Z,6.49
2023-11-12T10:08:40.766Z,6.59
2023-11-12T10:17:11.801Z,6.55
2023-11-12T10:25:53.636Z,6.59
2023-11-12T10:34:20.526Z,6.71
2023-11-12T10:42:46.062Z,6.73
2023-11-12T10:51:11.843Z,6.69
2023-11-12T10:59:40.262Z,6.75
2023-11-12T11:08:05.176Z,6.67
2023-11-12T11:16:55.749Z,6.57
2023-11-12T11:25:33.906Z,6.45
2023-11-12T11:34:19.982Z,6.28
2023-11-12T11:42:51.872Z,6.10
2023-11-12T11:51:56.549Z,6.02
2023-11-12T12:00:20.133Z,5.98
2023-11-12T12:08:54.046Z,5.98
2023-11-12T12:17:38.237Z,6.01
2023-11-12T12:26:02.646Z,6.11
2023-11-12T12:34:27.605Z,6.19
2023-11-12T12:42:55.742Z,6.22
2023-11-12T12:51:21.428Z,6.29
2023-11-12T12:59:47.720Z,6.33
2023-11-12T13:08:12.550Z,6.36
2023-11-12T13:16:39.605Z,6.42
2023-11-12T13:25:07.291Z,6.49
2023-11-12T13:33:32.779Z,6.48
2023-11-12T13:41:59.083Z,6.43
2023-11-12T13:50:29.420Z,6.37
2023-11-12T13:58:54.469Z,6.31
2023-11-12T14:07:18.320Z,6.29
2023-11-12T14:16:01.629Z,6.22
2023-11-12T14:24:25.802Z,6.10
2023-11-12T14:32:52.303Z,5.95
2023-11-12T14:41:18.710Z,5.79
2023-11-12T14:49:42.590Z,5.58
2023-11-12T14:58:08.928Z,5.39
2023-11-12T15:06:32.852Z,5.26
2023-11-12T15:14:58.764Z,5.20
2023-11-12T15:23:22.914Z,5.29
2023-11-12T15:31:49.529Z,5.43
2023-11-12T15:40:24.218Z,5.45
2023-11-12T15:48:55.209Z,5.29
2023-11-12T15:57:42.539Z,5.19
2023-11-12T16:06:09.443Z,5.14
2023-11-12T16:14:33.179Z,5.20
2023-11-12T16:22:57.760Z,5.28
2023-11-12T16:31:22.439Z,5.29
2023-11-12T16:39:52.112Z,5.28
2023-11-12T16:48:15.448Z,5.31
2023-11-12T16:56:39.766Z,5.39
2023-11-12T17:05:06.535Z,5.45
2023-11-12T17:13:34.399Z,5.47
2023-11-12T17:21:59.817Z,5.54
2023-11-12T17:30:26.370Z,5.61
2023-11-12T17:38:54.281Z,5.67
2023-11-12T17:47:19.057Z,5.68
2023-11-12T17:55:46.192Z,5.66
2023-11-12T18:04:13.459Z,5.62
2023-11-12T18:12:38.697Z,5.58
2023-11-12T18:21:02.593Z,5.57
2023-11-12T18:29:26.418Z,5.56
2023-11-12T18:37:53.377Z,5.53
2023-11-12T18:46:18.745Z,5.50
2023-11-12T18:54:44.546Z,5.43
2023-11-12T19:03:08.749Z,5.35
2023-11-12T19:11:35.260Z,5.35
2023-11-12T19:20:05.937Z,5.36
2023-11-12T19:28:33.154Z,5.38
2023-11-12T19:36:57.169Z,5.39
2023-11-12T19:45:47.103Z,5.40
2023-11-12T19:54:14.367Z,5.34
2023-11-12T20:02:41.732Z,5.25
2023-11-12T20:11:08.261Z,5.17
2023-11-12T20:19:35.233Z,5.16
2023-11-12T20:27:59.410Z,5.15
2023-11-12T20:36:24.231Z,5.13
2023-11-12T20:44:50.204Z,5.10
2023-11-12T20:53:13.512Z,5.07
2023-11-12T21:01:38.881Z,5.08
2023-11-12T21:10:05.014Z,5.09
2023-11-12T21:18:29.661Z,5.08
2023-11-12T21:26:55.649Z,5.05
2023-11-12T21:35:21.227Z,5.05
2023-11-12T21:43:48.969Z,5.05
2023-11-12T21:52:12.928Z,5.04
2023-11-12T22:00:38.757Z,5.04
2023-11-12T22:09:25.393Z,5.02
2023-11-12T22:17:53.740Z,5.01
2023-11-12T22:26:17.981Z,4.99
2023-11-12T22:34:41.894Z,4.99
2023-11-12T22:43:06.171Z,4.95
2023-11-12T22:51:30.952Z,4.92
2023-11-12T22:59:56.982Z,4.91
2023-11-12T23:08:21.379Z,4.90
2023-11-12T23:16:48.422Z,4.89
2023-11-12T23:25:15.149Z,4.90
2023-11-12T23:33:40.377Z,4.87
2023-11-12T23:42:04.610Z,4.86
2023-11-12T23:50:30.536Z,4.83
2023-11-12T23:58:56.640Z,4.81
